Time;durP1;ratioP1;P1;durP2;ratioP2;P2;SDS_P1;SDS_P2;PMS_P1;PMS_P2;Temp;Humidity;BMP_temperature;BMP_pressure;BME280_temperature;BME280_humidity;BME280_pressure;Samples;Min_cycle;Max_cycle;Signal;HPM_P1;HPM_P2
2021/12/29 00:00:29;;;;;;;5.60;2.10;;;7.80;99.90;;;;;;487946;244;29313;-71
2021/12/29 00:02:30;;;;;;;5.47;2.23;;;7.80;99.90;;;;;;487991;244;28470;-71
2021/12/29 00:04:32;;;;;;;5.50;2.07;;;7.80;99.90;;;;;;487991;244;27939;-72
2021/12/29 00:06:33;;;;;;;7.00;2.93;;;7.80;99.90;;;;;;487980;244;28916;-71
2021/12/29 00:08:34;;;;;;;5.40;2.00;;;7.80;99.90;;;;;;487982;244;28245;-71
2021/12/29 00:10:36;;;;;;;6.07;2.23;;;7.80;99.90;;;;;;487953;244;27598;-72
2021/12/29 00:12:41;;;;;;;5.37;2.20;;;7.80;99.90;;;;;;487964;244;27900;-72
2021/12/29 00:14:40;;;;;;;8.10;2.13;;;7.80;99.90;;;;;;487703;243;27993;-72
2021/12/29 00:16:39;;;;;;;6.80;2.17;;;7.80;99.90;;;;;;487699;243;28561;-72
2021/12/29 00:18:40;;;;;;;5.17;1.90;;;7.80;99.90;;;;;;487964;244;28012;-71
2021/12/29 00:20:42;;;;;;;6.30;1.90;;;7.80;99.90;;;;;;487956;244;27960;-71
2021/12/29 00:22:43;;;;;;;5.60;2.00;;;7.80;99.90;;;;;;487951;244;28289;-72
2021/12/29 00:24:45;;;;;;;5.27;2.40;;;7.80;99.90;;;;;;487960;244;27993;-72
2021/12/29 00:26:45;;;;;;;3.43;2.00;;;7.80;99.90;;;;;;487908;244;28629;-72
2021/12/29 00:28:47;;;;;;;6.43;2.30;;;7.80;99.90;;;;;;487848;244;27547;-71
2021/12/29 00:30:48;;;;;;;5.53;2.17;;;7.80;99.90;;;;;;487920;244;27994;-71
2021/12/29 00:32:49;;;;;;;3.90;2.20;;;7.80;99.90;;;;;;487955;244;28614;-71
2021/12/29 00:34:50;;;;;;;4.47;2.00;;;7.70;99.90;;;;;;487945;244;28643;-72
2021/12/29 00:36:52;;;;;;;5.10;2.20;;;7.70;99.90;;;;;;487886;244;29310;-71
2021/12/29 00:38:53;;;;;;;1.83;1.60;;;7.80;99.90;;;;;;487932;244;28787;-72
2021/12/29 00:40:54;;;;;;;6.40;1.80;;;7.80;99.90;;;;;;487942;244;27818;-72
2021/12/29 00:42:55;;;;;;;4.60;1.80;;;7.80;99.90;;;;;;487968;244;28079;-72
2021/12/29 00:44:57;;;;;;;2.70;1.73;;;7.80;99.90;;;;;;487923;244;28505;-72
2021/12/29 00:46:58;;;;;;;4.30;1.67;;;7.70;99.90;;;;;;487916;244;28528;-71
2021/12/29 00:48:59;;;;;;;2.57;1.50;;;7.70;99.90;;;;;;487961;244;27993;-71
2021/12/29 00:51:00;;;;;;;1.60;1.50;;;7.70;99.90;;;;;;487955;244;28825;-71
2021/12/29 00:53:02;;;;;;;4.60;1.70;;;7.80;99.90;;;;;;487941;244;27863;-71
2021/12/29 00:55:03;;;;;;;2.97;1.83;;;7.70;99.90;;;;;;487944;244;28819;-72
2021/12/29 00:57:04;;;;;;;5.47;1.90;;;7.80;99.90;;;;;;487920;244;28001;-72
2021/12/29 00:59:05;;;;;;;4.27;1.83;;;7.70;99.90;;;;;;487921;244;28787;-71
2021/12/29 01:01:07;;;;;;;3.03;1.53;;;7.70;99.90;;;;;;487944;244;27688;-71
2021/12/29 01:03:08;;;;;;;3.93;1.90;;;7.70;99.90;;;;;;487923;244;28419;-72
2021/12/29 01:05:09;;;;;;;6.90;1.90;;;7.70;99.90;;;;;;487934;244;29464;-71
2021/12/29 01:07:10;;;;;;;2.50;1.80;;;7.70;99.90;;;;;;487935;244;28407;-71
2021/12/29 01:09:12;;;;;;;3.77;1.90;;;7.70;99.90;;;;;;487946;244;29244;-72
2021/12/29 01:11:13;;;;;;;2.50;1.70;;;7.70;99.90;;;;;;487955;244;28887;-72
2021/12/29 01:13:19;;;;;;;4.70;1.58;;;7.70;99.90;;;;;;487928;244;28847;-71
2021/12/29 01:15:17;;;;;;;2.93;1.50;;;7.70;99.90;;;;;;487702;243;27606;-72
2021/12/29 01:17:17;;;;;;;3.70;1.70;;;7.70;99.90;;;;;;487806;243;27935;-71
2021/12/29 01:19:21;;;;;;;6.55;1.70;;;7.60;99.90;;;;;;487952;244;28936;-71
2021/12/29 01:21:19;;;;;;;7.17;2.43;;;7.70;99.90;;;;;;487597;243;27604;-72
2021/12/29 01:23:20;;;;;;;2.45;1.35;;;7.60;99.90;;;;;;487922;244;28072;-71
2021/12/29 01:25:22;;;;;;;3.70;1.73;;;7.60;99.90;;;;;;487923;244;28111;-72
2021/12/29 01:27:23;;;;;;;2.20;1.85;;;7.60;99.90;;;;;;487950;244;27934;-72
2021/12/29 01:29:26;;;;;;;4.77;1.77;;;7.70;99.90;;;;;;487961;244;27487;-71
2021/12/29 01:31:25;;;;;;;1.48;1.37;;;7.60;99.90;;;;;;487821;244;27464;-71
2021/12/29 01:33:27;;;;;;;1.87;1.77;;;7.60;99.90;;;;;;487946;244;27570;-72
2021/12/29 01:35:28;;;;;;;3.35;1.70;;;7.60;99.90;;;;;;487936;244;27472;-72
2021/12/29 01:37:29;;;;;;;2.97;1.37;;;7.60;99.90;;;;;;487947;244;27524;-71
2021/12/29 01:39:30;;;;;;;2.25;1.75;;;7.60;99.90;;;;;;487943;244;27944;-71
2021/12/29 01:41:32;;;;;;;4.20;1.80;;;7.60;99.90;;;;;;487936;244;27928;-72
2021/12/29 01:43:33;;;;;;;5.45;1.90;;;7.60;99.90;;;;;;487914;244;28861;-72
2021/12/29 01:45:34;;;;;;;3.60;2.00;;;7.60;99.90;;;;;;487933;244;27535;-71
2021/12/29 01:47:35;;;;;;;2.80;1.63;;;7.60;99.90;;;;;;487949;244;27583;-71
2021/12/29 01:49:38;;;;;;;4.40;1.87;;;7.60;99.90;;;;;;487914;244;28525;-71
2021/12/29 01:51:47;;;;;;;3.80;1.60;;;7.60;99.90;;;;;;487867;244;27550;-71
2021/12/29 01:53:47;;;;;;;4.62;1.65;;;7.60;99.90;;;;;;487440;243;28877;-71
2021/12/29 01:55:40;;;;;;;6.20;2.00;;;7.60;99.90;;;;;;487492;243;27847;-71
2021/12/29 01:57:42;;;;;;;5.90;1.90;;;7.60;99.90;;;;;;487960;244;28054;-72
2021/12/29 01:59:43;;;;;;;4.73;2.20;;;7.70;99.90;;;;;;487951;244;27497;-71
2021/12/29 02:01:44;;;;;;;2.23;1.80;;;7.70;99.90;;;;;;487956;244;28326;-72
2021/12/29 02:03:47;;;;;;;3.65;1.83;;;7.70;99.90;;;;;;487967;244;28581;-71
2021/12/29 02:05:48;;;;;;;3.20;1.73;;;7.60;99.90;;;;;;487902;244;28175;-72
2021/12/29 02:07:48;;;;;;;9.45;2.30;;;7.60;99.90;;;;;;487938;244;28924;-72
2021/12/29 02:09:49;;;;;;;4.60;2.27;;;7.60;99.90;;;;;;487708;243;27500;-71
2021/12/29 02:11:51;;;;;;;4.20;1.90;;;7.60;99.90;;;;;;477163;249;28690;-71
2021/12/29 02:13:52;;;;;;;4.95;2.03;;;7.60;99.90;;;;;;477115;249;27622;-71
2021/12/29 02:15:53;;;;;;;2.80;1.80;;;7.60;99.90;;;;;;477145;249;27557;-72
2021/12/29 02:17:54;;;;;;;3.03;1.60;;;7.60;99.90;;;;;;477161;249;28896;-71
2021/12/29 02:19:55;;;;;;;6.00;1.90;;;7.60;99.90;;;;;;477142;249;28141;-72
2021/12/29 02:22:06;;;;;;;5.23;1.87;;;7.60;99.90;;;;;;476442;249;28534;-71
2021/12/29 02:26:02;;;;;;;5.13;1.80;;;7.60;99.90;;;;;;475197;250;27497;-71
2021/12/29 02:28:03;;;;;;;5.15;2.00;;;7.60;99.90;;;;;;475319;250;28266;-71
2021/12/29 02:30:04;;;;;;;3.80;1.83;;;7.70;99.90;;;;;;475296;250;27406;-72
2021/12/29 02:32:06;;;;;;;2.28;1.80;;;7.60;99.90;;;;;;475285;250;28820;-71
2021/12/29 02:34:10;;;;;;;6.73;2.33;;;7.60;99.90;;;;;;475259;250;27423;-71
2021/12/29 02:36:08;;;;;;;6.40;2.08;;;7.60;99.90;;;;;;475147;250;27903;-72
2021/12/29 02:38:12;;;;;;;6.13;2.27;;;7.60;99.90;;;;;;475218;250;27946;-70
2021/12/29 02:40:11;;;;;;;2.47;1.60;;;7.60;99.90;;;;;;475195;250;29060;-71
2021/12/29 02:42:14;;;;;;;3.40;1.62;;;7.60;99.90;;;;;;475277;250;28523;-71
2021/12/29 02:44:18;;;;;;;2.28;1.50;;;7.60;99.90;;;;;;475204;250;27866;-71
2021/12/29 02:46:14;;;;;;;2.80;1.67;;;7.60;99.90;;;;;;475181;250;27488;-71
2021/12/29 02:48:16;;;;;;;2.55;1.40;;;7.60;99.90;;;;;;475296;250;27542;-71
2021/12/29 02:50:18;;;;;;;3.05;1.70;;;7.60;99.90;;;;;;475228;250;27423;-71
2021/12/29 02:52:19;;;;;;;2.03;1.60;;;7.60;99.90;;;;;;475260;250;27451;-71
2021/12/29 02:54:20;;;;;;;3.53;1.67;;;7.50;99.90;;;;;;475291;250;28857;-69
2021/12/29 02:56:21;;;;;;;2.00;1.42;;;7.60;99.90;;;;;;475257;250;28907;-72
2021/12/29 02:58:22;;;;;;;2.27;1.57;;;7.60;99.90;;;;;;475269;250;27538;-71
2021/12/29 03:00:24;;;;;;;1.62;1.50;;;7.60;99.90;;;;;;475274;250;28272;-71
2021/12/29 03:02:25;;;;;;;3.53;1.50;;;7.60;99.90;;;;;;475236;250;27542;-71
2021/12/29 03:04:26;;;;;;;3.10;1.83;;;7.60;99.90;;;;;;475281;250;28956;-71
2021/12/29 03:06:27;;;;;;;2.50;1.60;;;7.60;99.90;;;;;;475277;250;28808;-69
2021/12/29 03:08:29;;;;;;;1.67;1.57;;;7.60;99.90;;;;;;475293;250;27933;-71
2021/12/29 03:10:30;;;;;;;2.78;1.58;;;7.60;99.90;;;;;;475292;250;28263;-69
2021/12/29 03:12:31;;;;;;;5.03;1.77;;;7.60;99.90;;;;;;475272;250;27513;-72
2021/12/29 03:14:33;;;;;;;1.70;1.58;;;7.60;99.90;;;;;;475213;250;27549;-70
2021/12/29 03:16:34;;;;;;;2.67;1.53;;;7.60;99.90;;;;;;475267;250;27506;-71
2021/12/29 03:18:35;;;;;;;2.30;1.37;;;7.60;99.90;;;;;;475280;250;28817;-71
2021/12/29 03:20:36;;;;;;;1.90;1.70;;;7.60;99.90;;;;;;475273;250;28813;-71
2021/12/29 03:22:37;;;;;;;5.33;1.87;;;7.60;99.90;;;;;;475278;250;28283;-71
2021/12/29 03:24:39;;;;;;;2.27;1.30;;;7.60;99.90;;;;;;475305;250;28030;-71
2021/12/29 03:26:40;;;;;;;3.33;1.67;;;7.60;99.90;;;;;;475242;250;28828;-72
2021/12/29 03:28:43;;;;;;;1.70;1.60;;;7.50;99.90;;;;;;475284;250;29247;-71
2021/12/29 03:30:45;;;;;;;4.45;1.70;;;7.60;99.90;;;;;;475213;250;29382;-71
2021/12/29 03:32:51;;;;;;;4.20;1.80;;;7.50;99.90;;;;;;475180;250;27986;-72
2021/12/29 03:34:45;;;;;;;1.75;1.50;;;7.60;99.90;;;;;;475113;250;28822;-72
2021/12/29 03:36:46;;;;;;;2.58;1.70;;;7.50;99.90;;;;;;475263;250;27419;-72
2021/12/29 03:38:48;;;;;;;2.33;1.92;;;7.50;99.90;;;;;;475268;250;27439;-72
2021/12/29 03:40:49;;;;;;;3.12;2.37;;;7.60;99.90;;;;;;475280;250;27459;-71
2021/12/29 03:42:50;;;;;;;1.80;1.70;;;7.60;99.90;;;;;;475319;250;27474;-72
2021/12/29 03:44:51;;;;;;;2.08;1.90;;;7.50;99.90;;;;;;475289;250;27951;-71
2021/12/29 03:46:52;;;;;;;7.40;2.58;;;7.50;99.90;;;;;;475300;250;28043;-71
2021/12/29 03:48:54;;;;;;;4.00;1.70;;;7.50;99.90;;;;;;475280;250;27503;-72
2021/12/29 03:50:55;;;;;;;3.87;2.00;;;7.50;99.90;;;;;;475261;250;27442;-71
2021/12/29 03:52:56;;;;;;;2.75;2.30;;;7.50;99.90;;;;;;475308;250;27514;-71
2021/12/29 03:54:57;;;;;;;2.70;1.80;;;7.50;99.90;;;;;;475315;250;27422;-71
2021/12/29 03:57:02;;;;;;;4.35;2.20;;;7.50;99.90;;;;;;475300;250;27467;-71
2021/12/29 03:59:00;;;;;;;4.18;2.25;;;7.60;99.90;;;;;;475108;250;27946;-71
2021/12/29 04:01:01;;;;;;;2.92;2.10;;;7.60;99.90;;;;;;475299;250;27562;-71
2021/12/29 04:03:02;;;;;;;2.87;2.10;;;7.60;99.90;;;;;;475286;250;27424;-69
2021/12/29 04:05:04;;;;;;;2.65;1.98;;;7.50;99.90;;;;;;475253;250;27525;-71
2021/12/29 04:07:05;;;;;;;2.50;1.80;;;7.50;99.90;;;;;;475287;250;27506;-71
2021/12/29 04:09:06;;;;;;;2.60;2.10;;;7.50;99.90;;;;;;475275;250;28865;-72
2021/12/29 04:11:07;;;;;;;5.82;1.98;;;7.50;99.90;;;;;;475278;250;27466;-72
2021/12/29 04:13:09;;;;;;;3.12;1.62;;;7.50;99.90;;;;;;475262;250;28643;-72
2021/12/29 04:15:10;;;;;;;2.12;1.80;;;7.50;99.90;;;;;;475247;250;27462;-72
2021/12/29 04:17:12;;;;;;;1.70;1.60;;;7.50;99.90;;;;;;475289;250;27470;-72
2021/12/29 04:19:28;;;;;;;4.67;2.10;;;7.50;99.90;;;;;;475242;250;27511;-72
2021/12/29 04:21:18;;;;;;;5.82;2.72;;;7.50;99.90;;;;;;475047;250;28922;-69
2021/12/29 04:23:18;;;;;;;4.95;2.20;;;7.50;99.90;;;;;;475207;250;27447;-69
2021/12/29 04:25:23;;;;;;;7.68;2.40;;;7.60;99.90;;;;;;475308;250;27463;-69
2021/12/29 04:27:25;;;;;;;3.30;1.60;;;7.60;99.90;;;;;;475121;250;27486;-69
2021/12/29 04:29:24;;;;;;;2.77;1.70;;;7.50;99.90;;;;;;475261;250;27899;-70
2021/12/29 04:31:26;;;;;;;2.17;1.70;;;7.50;99.90;;;;;;475303;250;29395;-72
2021/12/29 04:33:27;;;;;;;3.37;2.63;;;7.60;99.90;;;;;;475311;250;28493;-72
2021/12/29 04:35:28;;;;;;;5.87;5.37;;;7.50;99.90;;;;;;475270;250;28812;-72
2021/12/29 04:37:29;;;;;;;6.35;5.70;;;7.60;99.90;;;;;;475295;250;27475;-72
2021/12/29 04:39:31;;;;;;;5.10;4.50;;;7.60;99.90;;;;;;475252;250;27431;-72
2021/12/29 04:41:32;;;;;;;4.10;3.70;;;7.50;99.90;;;;;;475272;250;28847;-71
2021/12/29 04:43:33;;;;;;;3.53;2.60;;;7.50;99.90;;;;;;475293;250;27903;-72
2021/12/29 04:45:34;;;;;;;6.63;2.67;;;7.50;99.90;;;;;;475315;250;28050;-71
2021/12/29 04:47:40;;;;;;;5.63;2.23;;;7.50;99.90;;;;;;475255;250;29274;-71
2021/12/29 04:49:41;;;;;;;7.27;2.23;;;7.50;99.90;;;;;;475170;250;27576;-72
2021/12/29 04:51:44;;;;;;;2.37;2.17;;;7.50;99.90;;;;;;475123;250;28393;-71
2021/12/29 04:53:39;;;;;;;10.15;2.17;;;7.50;99.90;;;;;;475140;250;28036;-71
2021/12/29 04:55:45;;;;;;;3.25;2.15;;;7.50;99.90;;;;;;475274;250;27522;-72
2021/12/29 04:57:42;;;;;;;2.65;2.05;;;7.50;99.90;;;;;;475203;250;27455;-72
2021/12/29 04:59:43;;;;;;;5.43;2.50;;;7.50;99.90;;;;;;475268;250;27479;-71
2021/12/29 05:01:44;;;;;;;2.10;1.70;;;7.50;99.90;;;;;;475284;250;28816;-71
2021/12/29 05:03:46;;;;;;;3.85;2.15;;;7.50;99.90;;;;;;475243;250;29266;-72
2021/12/29 05:05:57;;;;;;;3.43;1.90;;;7.50;99.90;;;;;;475311;250;27888;-71
2021/12/29 05:10:14;;;;;;;2.40;1.77;;;7.50;99.90;;;;;;475289;250;28042;-69
2021/12/29 05:12:16;;;;;;;4.18;1.80;;;7.50;99.90;;;;;;475265;250;29380;-70
2021/12/29 05:14:17;;;;;;;3.00;1.92;;;7.50;99.90;;;;;;475291;250;27969;-69
2021/12/29 05:16:18;;;;;;;2.05;1.62;;;7.50;99.90;;;;;;475247;250;27523;-69
2021/12/29 05:18:19;;;;;;;5.47;1.60;;;7.50;99.90;;;;;;475297;250;27570;-69
2021/12/29 05:20:21;;;;;;;4.57;1.90;;;7.50;99.90;;;;;;475269;250;28820;-69
2021/12/29 05:22:22;;;;;;;3.67;1.80;;;7.50;99.90;;;;;;475284;250;27435;-72
2021/12/29 05:24:23;;;;;;;1.92;1.83;;;7.50;99.90;;;;;;475268;250;27451;-71
2021/12/29 05:26:24;;;;;;;1.62;1.35;;;7.50;99.90;;;;;;475278;250;27940;-71
2021/12/29 05:28:26;;;;;;;5.60;2.25;;;7.40;99.90;;;;;;475274;250;29829;-71
2021/12/29 05:30:27;;;;;;;3.55;1.80;;;7.40;99.90;;;;;;475273;250;27475;-69
2021/12/29 05:32:30;;;;;;;2.10;1.60;;;7.40;99.90;;;;;;475285;250;27407;-70
2021/12/29 05:34:30;;;;;;;1.98;1.50;;;7.50;99.90;;;;;;475286;250;29384;-71
2021/12/29 05:36:31;;;;;;;3.40;1.90;;;7.50;99.90;;;;;;475277;250;27486;-69
2021/12/29 05:38:32;;;;;;;3.90;1.87;;;7.50;99.90;;;;;;475278;250;28886;-71
2021/12/29 05:40:33;;;;;;;1.90;1.80;;;7.50;99.90;;;;;;475235;250;27518;-71
2021/12/29 05:42:35;;;;;;;3.45;1.75;;;7.50;99.90;;;;;;475296;250;27467;-71
2021/12/29 05:44:36;;;;;;;3.30;1.77;;;7.50;99.90;;;;;;475283;250;27434;-71
2021/12/29 05:46:37;;;;;;;2.30;1.57;;;7.40;99.90;;;;;;475274;250;28824;-72
2021/12/29 05:48:38;;;;;;;2.03;1.70;;;7.50;99.90;;;;;;475247;250;28347;-72
2021/12/29 05:50:40;;;;;;;1.35;1.30;;;7.40;99.90;;;;;;475209;250;28083;-72
2021/12/29 05:52:41;;;;;;;2.00;1.80;;;7.40;99.90;;;;;;475216;250;28064;-72
2021/12/29 05:54:42;;;;;;;1.70;1.60;;;7.40;99.90;;;;;;475224;250;29386;-71
2021/12/29 05:56:43;;;;;;;2.25;1.87;;;7.40;99.90;;;;;;475156;250;29196;-71
2021/12/29 05:58:45;;;;;;;5.95;1.87;;;7.40;99.90;;;;;;475245;250;27438;-71
2021/12/29 06:00:46;;;;;;;2.00;1.70;;;7.40;99.90;;;;;;475248;250;27435;-71
2021/12/29 06:02:47;;;;;;;3.45;1.80;;;7.40;99.90;;;;;;475258;250;27451;-71
2021/12/29 06:04:48;;;;;;;1.50;1.40;;;7.40;99.90;;;;;;475189;250;27459;-72
2021/12/29 06:06:50;;;;;;;2.23;1.70;;;7.40;99.90;;;;;;475269;250;28291;-72
2021/12/29 06:08:51;;;;;;;11.68;2.50;;;7.40;99.90;;;;;;475261;250;30289;-72
2021/12/29 06:10:52;;;;;;;4.17;3.77;;;7.40;99.90;;;;;;475264;250;27964;-71
2021/12/29 06:12:53;;;;;;;3.72;3.42;;;7.40;99.90;;;;;;475276;250;28364;-71
2021/12/29 06:14:55;;;;;;;5.97;3.70;;;7.40;99.90;;;;;;475302;250;27420;-72
2021/12/29 06:16:56;;;;;;;4.30;3.10;;;7.40;99.90;;;;;;475254;250;28807;-72
2021/12/29 06:18:57;;;;;;;5.97;3.05;;;7.40;99.90;;;;;;475312;250;27463;-72
2021/12/29 06:20:58;;;;;;;3.73;2.50;;;7.40;99.90;;;;;;475259;250;27435;-72
2021/12/29 06:23:00;;;;;;;5.03;2.42;;;7.40;99.90;;;;;;475292;250;27971;-69
2021/12/29 06:25:01;;;;;;;2.90;2.10;;;7.40;99.90;;;;;;475311;250;27973;-72
2021/12/29 06:27:02;;;;;;;3.05;2.00;;;7.40;99.90;;;;;;475310;250;29306;-71
2021/12/29 06:29:03;;;;;;;2.70;2.10;;;7.40;99.90;;;;;;475254;250;28013;-71
2021/12/29 06:31:05;;;;;;;2.53;1.80;;;7.40;99.90;;;;;;475302;250;27533;-71
2021/12/29 06:33:06;;;;;;;1.87;1.70;;;7.40;99.90;;;;;;475297;250;27467;-72
2021/12/29 06:35:07;;;;;;;2.95;1.60;;;7.40;99.90;;;;;;475329;250;27801;-72
2021/12/29 06:37:12;;;;;;;2.10;1.80;;;7.40;99.90;;;;;;475293;250;27450;-72
2021/12/29 06:39:13;;;;;;;1.95;1.85;;;7.40;99.90;;;;;;475236;250;28778;-70
2021/12/29 06:41:14;;;;;;;3.67;2.63;;;7.40;99.90;;;;;;475261;250;27550;-70
2021/12/29 06:43:15;;;;;;;2.22;1.77;;;7.40;99.90;;;;;;475271;250;28860;-69
2021/12/29 06:45:16;;;;;;;1.80;1.70;;;7.40;99.90;;;;;;475299;250;27474;-71
2021/12/29 06:47:18;;;;;;;2.07;1.90;;;7.40;99.90;;;;;;475300;250;28707;-72
2021/12/29 06:49:19;;;;;;;4.65;2.33;;;7.40;99.90;;;;;;475292;250;29227;-71
2021/12/29 06:51:20;;;;;;;1.85;1.75;;;7.40;99.90;;;;;;475318;250;27956;-71
2021/12/29 06:53:21;;;;;;;3.92;3.60;;;7.40;99.90;;;;;;475251;250;27416;-71
2021/12/29 06:55:23;;;;;;;4.97;4.57;;;7.40;99.90;;;;;;475268;250;27530;-72
2021/12/29 06:57:24;;;;;;;5.55;5.05;;;7.40;99.90;;;;;;475295;250;28823;-72
2021/12/29 06:59:25;;;;;;;5.20;4.80;;;7.40;99.90;;;;;;475288;250;27435;-71
2021/12/29 07:01:26;;;;;;;4.07;3.77;;;7.40;99.90;;;;;;475300;250;28828;-72
2021/12/29 07:03:28;;;;;;;4.33;3.93;;;7.40;99.90;;;;;;475276;250;27620;-71
2021/12/29 07:05:29;;;;;;;7.37;3.53;;;7.40;99.90;;;;;;475195;250;28607;-72
2021/12/29 07:07:30;;;;;;;3.53;3.23;;;7.40;99.90;;;;;;475293;250;28598;-72
2021/12/29 07:09:31;;;;;;;2.83;2.62;;;7.40;99.90;;;;;;475294;250;29366;-71
2021/12/29 07:11:34;;;;;;;2.77;2.57;;;7.40;99.90;;;;;;475264;250;27534;-72
2021/12/29 07:13:36;;;;;;;2.50;2.30;;;7.40;99.90;;;;;;475232;250;28789;-72
2021/12/29 07:15:35;;;;;;;3.80;3.17;;;7.50;99.90;;;;;;475024;250;27548;-72
2021/12/29 07:17:37;;;;;;;3.35;2.47;;;7.40;99.90;;;;;;475250;250;28901;-71
2021/12/29 07:19:38;;;;;;;4.97;2.97;;;7.50;99.90;;;;;;475277;250;27415;-71
2021/12/29 07:21:39;;;;;;;3.15;2.25;;;7.50;99.90;;;;;;475265;250;27535;-71
2021/12/29 07:23:40;;;;;;;2.22;1.90;;;7.50;99.90;;;;;;475254;250;27542;-71
2021/12/29 07:25:42;;;;;;;2.97;2.43;;;7.50;99.90;;;;;;475271;250;27983;-71
2021/12/29 07:27:43;;;;;;;5.07;2.27;;;7.50;99.90;;;;;;475261;250;28115;-71
2021/12/29 07:29:44;;;;;;;2.28;2.03;;;7.40;99.90;;;;;;475153;250;29290;-72
2021/12/29 07:31:45;;;;;;;4.07;2.22;;;7.50;99.90;;;;;;481440;245;27460;-72
2021/12/29 07:33:47;;;;;;;3.33;2.20;;;7.50;99.90;;;;;;478447;247;27523;-72
2021/12/29 07:35:48;;;;;;;7.25;2.55;;;7.50;99.90;;;;;;483442;245;28429;-72
2021/12/29 07:37:49;;;;;;;3.93;2.63;;;7.40;99.90;;;;;;483549;246;27899;-71
2021/12/29 07:39:50;;;;;;;4.60;2.58;;;7.50;99.90;;;;;;483636;246;29353;-71
2021/12/29 07:41:52;;;;;;;3.83;2.53;;;7.50;99.90;;;;;;483588;246;27908;-72
2021/12/29 07:43:54;;;;;;;4.78;2.22;;;7.40;99.90;;;;;;483657;246;28304;-71
2021/12/29 07:45:55;;;;;;;4.80;2.10;;;7.40;99.90;;;;;;483622;245;27394;-72
2021/12/29 07:47:55;;;;;;;6.47;2.37;;;7.30;99.90;;;;;;483656;246;27767;-71
2021/12/29 07:49:57;;;;;;;5.30;2.60;;;7.40;99.90;;;;;;483621;246;27457;-71
2021/12/29 07:51:58;;;;;;;5.80;3.00;;;7.40;99.90;;;;;;483620;246;27428;-72
2021/12/29 07:53:59;;;;;;;3.78;3.42;;;7.40;99.90;;;;;;483596;246;27432;-71
2021/12/29 07:56:00;;;;;;;4.50;3.95;;;7.40;99.90;;;;;;483631;246;27921;-71
2021/12/29 07:58:02;;;;;;;5.78;4.30;;;7.50;99.90;;;;;;483624;246;27953;-72
2021/12/29 08:00:03;;;;;;;7.80;4.30;;;7.50;99.90;;;;;;483648;246;27483;-71
2021/12/29 08:02:04;;;;;;;6.77;5.40;;;7.50;99.90;;;;;;483644;246;28057;-72
2021/12/29 08:04:05;;;;;;;4.63;4.33;;;7.50;99.90;;;;;;483657;246;28344;-72
2021/12/29 08:06:07;;;;;;;5.90;3.30;;;7.50;99.90;;;;;;483587;246;28872;-71
2021/12/29 08:08:09;;;;;;;8.63;3.60;;;7.50;99.90;;;;;;483645;246;28253;-72
2021/12/29 08:10:09;;;;;;;2.97;2.78;;;7.50;99.90;;;;;;483622;245;27881;-72
2021/12/29 08:12:10;;;;;;;4.93;3.00;;;7.50;99.90;;;;;;483670;246;27513;-72
2021/12/29 08:14:12;;;;;;;4.93;2.60;;;7.60;99.90;;;;;;483654;246;28681;-72
2021/12/29 08:16:13;;;;;;;4.30;2.90;;;7.60;99.90;;;;;;483637;246;27725;-71
2021/12/29 08:18:14;;;;;;;5.40;2.78;;;7.60;99.90;;;;;;483677;246;28692;-72
2021/12/29 08:20:15;;;;;;;3.62;2.70;;;7.60;99.90;;;;;;483636;246;27986;-72
2021/12/29 08:22:17;;;;;;;4.23;2.77;;;7.70;99.90;;;;;;483649;246;27477;-72
2021/12/29 08:24:18;;;;;;;3.13;2.33;;;7.70;99.90;;;;;;483684;242;28127;-71
2021/12/29 08:26:19;;;;;;;2.55;1.90;;;7.70;99.90;;;;;;483676;246;27484;-72
2021/12/29 08:28:22;;;;;;;2.93;2.60;;;7.70;99.90;;;;;;483668;246;27505;-72
2021/12/29 08:30:22;;;;;;;3.72;2.25;;;7.70;99.90;;;;;;483585;245;27920;-71
2021/12/29 08:32:23;;;;;;;3.47;2.10;;;7.70;99.90;;;;;;483634;246;27413;-72
2021/12/29 08:34:24;;;;;;;4.67;2.00;;;7.70;99.90;;;;;;483676;246;28017;-71
2021/12/29 08:36:26;;;;;;;7.80;2.53;;;7.70;99.90;;;;;;483658;246;28857;-72
2021/12/29 08:38:27;;;;;;;7.30;2.30;;;7.70;99.90;;;;;;483678;246;27879;-72
2021/12/29 08:40:28;;;;;;;5.70;2.03;;;7.80;99.90;;;;;;483684;246;28270;-71
2021/12/29 08:42:29;;;;;;;3.47;2.23;;;7.80;99.90;;;;;;483660;246;28094;-72
2021/12/29 08:44:31;;;;;;;5.07;2.60;;;7.80;99.90;;;;;;483646;246;28398;-72
2021/12/29 08:46:32;;;;;;;3.43;3.10;;;7.80;99.90;;;;;;483652;246;29402;-72
2021/12/29 08:48:33;;;;;;;4.10;3.13;;;7.80;99.90;;;;;;483675;246;28306;-72
2021/12/29 08:50:34;;;;;;;5.93;3.30;;;7.80;99.90;;;;;;483674;246;27994;-72
2021/12/29 08:52:37;;;;;;;3.40;2.87;;;7.80;99.90;;;;;;483663;246;27394;-72
2021/12/29 08:54:37;;;;;;;4.70;2.90;;;7.80;99.90;;;;;;483582;245;28028;-71
2021/12/29 08:56:38;;;;;;;4.80;2.83;;;7.90;99.90;;;;;;483604;246;27768;-71
2021/12/29 08:58:39;;;;;;;3.73;2.37;;;7.90;99.90;;;;;;483680;246;27868;-71
2021/12/29 09:00:40;;;;;;;4.13;2.90;;;7.90;99.90;;;;;;483629;246;27911;-72
2021/12/29 09:02:42;;;;;;;3.00;2.80;;;7.90;99.90;;;;;;483670;246;27891;-72
2021/12/29 09:04:43;;;;;;;3.97;2.37;;;7.90;99.90;;;;;;483648;246;27915;-72
2021/12/29 09:06:44;;;;;;;4.47;2.90;;;7.90;99.90;;;;;;483667;246;27977;-72
2021/12/29 09:08:46;;;;;;;2.13;2.03;;;7.90;99.90;;;;;;483658;246;27653;-71
2021/12/29 09:10:47;;;;;;;4.63;2.53;;;7.80;99.90;;;;;;483665;246;28126;-72
2021/12/29 09:12:49;;;;;;;5.80;1.97;;;7.90;99.90;;;;;;483671;246;27978;-72
2021/12/29 09:14:49;;;;;;;10.37;2.53;;;7.90;99.90;;;;;;483579;246;27754;-71
2021/12/29 09:16:50;;;;;;;2.30;2.10;;;7.90;99.90;;;;;;483705;246;28596;-72
2021/12/29 09:18:52;;;;;;;2.50;1.90;;;7.90;99.90;;;;;;483688;246;28322;-71
2021/12/29 09:20:53;;;;;;;5.90;1.90;;;7.90;99.90;;;;;;483600;246;28403;-71
2021/12/29 09:22:54;;;;;;;2.00;1.70;;;7.90;99.90;;;;;;483660;246;28338;-72
2021/12/29 09:24:55;;;;;;;2.83;1.60;;;7.90;99.90;;;;;;483651;246;28447;-72
2021/12/29 09:26:57;;;;;;;3.10;1.80;;;8.00;99.90;;;;;;483663;246;28237;-71
2021/12/29 09:28:58;;;;;;;6.43;1.77;;;8.00;99.90;;;;;;483676;246;28811;-72
2021/12/29 09:30:59;;;;;;;3.63;1.57;;;8.00;99.90;;;;;;483681;246;28263;-71
2021/12/29 09:33:00;;;;;;;3.00;1.70;;;8.00;99.90;;;;;;483607;246;27661;-72
2021/12/29 09:35:02;;;;;;;2.27;1.80;;;8.00;99.90;;;;;;483645;246;27908;-72
2021/12/29 09:37:03;;;;;;;4.43;1.70;;;7.90;99.90;;;;;;483657;246;28792;-71
2021/12/29 09:39:04;;;;;;;2.43;1.60;;;7.90;99.90;;;;;;483668;246;28108;-72
2021/12/29 09:41:05;;;;;;;1.57;1.47;;;7.90;99.90;;;;;;483640;246;27936;-71
2021/12/29 09:43:07;;;;;;;1.67;1.47;;;7.90;99.90;;;;;;483671;245;27753;-72
2021/12/29 09:45:08;;;;;;;1.73;1.63;;;7.90;99.90;;;;;;483608;246;27910;-72
2021/12/29 09:47:10;;;;;;;1.77;1.67;;;7.90;99.90;;;;;;483675;246;27869;-72
2021/12/29 09:49:10;;;;;;;2.40;1.53;;;7.90;99.90;;;;;;483604;246;27906;-72
2021/12/29 09:51:12;;;;;;;1.57;1.47;;;7.90;99.90;;;;;;483647;246;27926;-72
2021/12/29 09:53:13;;;;;;;1.83;1.70;;;7.90;99.90;;;;;;483455;246;28387;-72
2021/12/29 09:55:14;;;;;;;2.77;1.50;;;7.90;99.90;;;;;;483671;246;27858;-72
2021/12/29 09:57:15;;;;;;;2.37;1.50;;;7.90;99.90;;;;;;483613;246;28405;-72
2021/12/29 09:59:18;;;;;;;1.80;1.70;;;7.90;99.90;;;;;;483675;246;28341;-71
2021/12/29 10:01:18;;;;;;;2.53;1.40;;;7.80;99.90;;;;;;483553;245;28210;-72
2021/12/29 10:03:19;;;;;;;3.57;1.50;;;7.90;99.90;;;;;;483671;246;28471;-72
2021/12/29 10:05:21;;;;;;;1.40;1.30;;;7.90;99.90;;;;;;483661;246;28206;-72
2021/12/29 10:07:22;;;;;;;1.30;1.20;;;7.90;99.90;;;;;;483670;246;27913;-72
2021/12/29 10:09:23;;;;;;;1.90;1.20;;;7.90;99.90;;;;;;483616;246;27510;-72
2021/12/29 10:11:24;;;;;;;2.20;1.50;;;7.90;99.90;;;;;;483648;246;27916;-72
2021/12/29 10:13:25;;;;;;;5.80;1.70;;;8.00;99.90;;;;;;483663;246;27912;-71
2021/12/29 10:15:27;;;;;;;1.50;1.40;;;8.00;99.90;;;;;;483666;246;27843;-72
2021/12/29 10:17:28;;;;;;;2.00;1.27;;;8.00;99.90;;;;;;483643;246;28773;-72
2021/12/29 10:19:29;;;;;;;1.50;1.40;;;8.00;99.90;;;;;;483657;246;27963;-72
2021/12/29 10:21:31;;;;;;;1.50;1.40;;;8.00;99.90;;;;;;483562;246;28338;-71
2021/12/29 10:23:32;;;;;;;1.50;1.40;;;8.00;99.90;;;;;;483619;246;27803;-71
2021/12/29 10:25:33;;;;;;;1.40;1.30;;;8.00;99.90;;;;;;483653;246;27955;-72
2021/12/29 10:27:34;;;;;;;1.40;1.30;;;8.10;99.90;;;;;;483652;246;27869;-71
2021/12/29 10:29:35;;;;;;;1.53;1.40;;;8.10;99.90;;;;;;483611;246;27823;-71
2021/12/29 10:31:38;;;;;;;1.83;1.60;;;8.10;99.90;;;;;;483631;246;27997;-72
2021/12/29 10:33:38;;;;;;;1.73;1.63;;;8.00;99.90;;;;;;483544;246;28537;-72
2021/12/29 10:35:39;;;;;;;1.60;1.50;;;8.00;99.90;;;;;;483648;246;27974;-72
2021/12/29 10:37:40;;;;;;;2.97;1.77;;;8.10;99.90;;;;;;483669;246;28230;-73
2021/12/29 10:39:42;;;;;;;2.13;1.80;;;8.10;99.90;;;;;;483641;246;30320;-73
2021/12/29 10:41:43;;;;;;;3.97;1.80;;;8.10;99.90;;;;;;483628;246;28408;-73
2021/12/29 10:43:44;;;;;;;2.07;1.97;;;8.10;99.90;;;;;;483672;246;27738;-73